Time;durP1;ratioP1;P1;durP2;ratioP2;P2;SDS_P1;SDS_P2;PMS_P1;PMS_P2;Temp;Humidity;BMP_temperature;BMP_pressure;BME280_temperature;BME280_humidity;BME280_pressure;Samples;Min_cycle;Max_cycle;Signal;HPM_P1;HPM_P2
2021/11/17 02:26:27;;;;;;;54.63;25.73;;;7.30;98.60;;;;;;4900910;29;20047;-77
2021/11/17 02:29:16;;;;;;;54.93;26.90;;;7.30;98.60;;;;;;4899199;29;20037;-77
2021/11/17 02:32:03;;;;;;;60.43;27.80;;;7.30;98.50;;;;;;4894473;29;20043;-79
2021/11/17 02:34:47;;;;;;;59.63;27.87;;;7.10;98.10;;;;;;4886753;29;20095;-77
2021/11/17 02:37:19;;;;;;;56.37;26.67;;;6.90;98.10;;;;;;4903526;29;20100;-77
2021/11/17 02:40:10;;;;;;;61.90;27.75;;;6.80;98.40;;;;;;4887650;29;20047;-79
2021/11/17 02:43:27;;;;;;;63.57;27.83;;;7.00;98.80;;;;;;4903237;29;20500;-78
2021/11/17 02:46:11;;;;;;;59.63;27.13;;;7.10;98.80;;;;;;4902799;29;20355;-77
2021/11/17 02:49:02;;;;;;;63.50;27.03;;;7.10;98.90;;;;;;4902261;29;20067;-77
2021/11/17 02:51:49;;;;;;;60.23;27.00;;;7.20;98.90;;;;;;4887089;29;20032;-78
2021/11/17 02:54:27;;;;;;;57.63;27.30;;;7.20;98.80;;;;;;4902758;29;20072;-77
2021/11/17 02:57:11;;;;;;;60.90;28.03;;;7.30;98.80;;;;;;4901737;29;20143;-78
2021/11/17 02:59:55;;;;;;;59.27;26.57;;;7.30;98.70;;;;;;4902511;29;20037;-78
2021/11/17 03:02:20;;;;;;;57.60;26.13;;;7.20;98.70;;;;;;4889190;29;20037;-79
2021/11/17 03:05:07;;;;;;;62.57;27.97;;;7.30;98.70;;;;;;4902600;29;20385;-81
2021/11/17 03:07:46;;;;;;;67.03;29.37;;;7.20;98.70;;;;;;4902846;29;20033;-77
2021/11/17 03:10:28;;;;;;;61.23;28.37;;;7.20;98.60;;;;;;4887384;29;20033;-77
2021/11/17 03:13:12;;;;;;;64.40;27.80;;;7.20;98.60;;;;;;4902453;29;20041;-78
2021/11/17 03:15:50;;;;;;;62.47;28.73;;;7.10;98.60;;;;;;4903132;29;20041;-77
2021/11/17 03:18:18;;;;;;;70.63;30.20;;;7.10;98.50;;;;;;4902394;29;20048;-77
2021/11/17 03:21:00;;;;;;;66.00;29.53;;;7.10;98.70;;;;;;4902010;29;20037;-77
2021/11/17 03:24:04;;;;;;;71.77;29.90;;;7.00;98.60;;;;;;4885999;29;20028;-76
2021/11/17 03:26:42;;;;;;;62.97;27.47;;;7.10;98.70;;;;;;4862987;29;20038;-78
2021/11/17 03:29:32;;;;;;;69.13;29.30;;;7.10;99.00;;;;;;4898425;29;20037;-77
2021/11/17 03:32:16;;;;;;;63.53;27.20;;;7.20;98.80;;;;;;4885557;29;20056;-77
2021/11/17 03:34:57;;;;;;;62.50;27.77;;;7.20;98.80;;;;;;4902690;29;20366;-77
2021/11/17 03:37:36;;;;;;;62.37;25.97;;;7.20;98.80;;;;;;4885759;29;20170;-78
2021/11/17 03:40:02;;;;;;;70.13;28.97;;;7.30;98.80;;;;;;4884577;29;20036;-77
2021/11/17 03:42:49;;;;;;;62.97;28.07;;;7.40;98.70;;;;;;4901012;29;20376;-78
2021/11/17 03:45:47;;;;;;;62.13;26.77;;;7.40;98.60;;;;;;4899558;29;20096;-76
2021/11/17 03:48:35;;;;;;;62.37;26.37;;;7.30;98.40;;;;;;4899782;29;20052;-78
2021/11/17 03:51:26;;;;;;;59.23;25.40;;;7.30;98.40;;;;;;4901138;29;20037;-77
2021/11/17 03:54:14;;;;;;;62.50;26.90;;;7.30;98.50;;;;;;4899404;29;20028;-80
2021/11/17 03:56:54;;;;;;;69.17;29.03;;;7.40;98.50;;;;;;4901147;29;20062;-77
2021/11/17 03:59:35;;;;;;;60.80;27.23;;;7.30;98.40;;;;;;4900956;29;20079;-77
2021/11/17 04:02:13;;;;;;;60.80;26.60;;;7.30;98.40;;;;;;4900325;29;20486;-77
2021/11/17 04:05:01;;;;;;;60.03;26.93;;;7.30;98.40;;;;;;4884170;29;20047;-77
2021/11/17 04:07:32;;;;;;;65.07;27.33;;;7.30;98.40;;;;;;4884653;29;20107;-77
2021/11/17 04:10:24;;;;;;;63.80;26.53;;;7.30;98.50;;;;;;4901427;29;20036;-78
2021/11/17 04:12:59;;;;;;;67.17;27.83;;;7.30;98.40;;;;;;4883805;29;20029;-77
2021/11/17 04:15:38;;;;;;;69.70;29.30;;;7.30;98.40;;;;;;4883900;29;20067;-77
2021/11/17 04:18:12;;;;;;;68.63;28.87;;;7.20;98.00;;;;;;4883013;29;20091;-77
2021/11/17 04:20:44;;;;;;;67.23;27.30;;;7.20;98.20;;;;;;4899921;29;20469;-77
2021/11/17 04:23:10;;;;;;;76.25;30.02;;;7.20;98.50;;;;;;4884362;29;20037;-77
2021/11/17 04:26:10;;;;;;;65.67;27.33;;;7.10;98.30;;;;;;4900524;29;20525;-77
2021/11/17 04:28:43;;;;;;;65.67;26.37;;;7.10;98.20;;;;;;4899133;29;20390;-77
2021/11/17 04:31:29;;;;;;;64.15;27.70;;;7.20;98.50;;;;;;4899057;29;20476;-78
2021/11/17 04:33:58;;;;;;;66.20;26.90;;;7.30;98.60;;;;;;4883442;29;20041;-81
2021/11/17 04:36:33;;;;;;;70.00;28.43;;;7.30;98.60;;;;;;4898479;29;20039;-77
2021/11/17 04:39:04;;;;;;;66.73;28.00;;;7.30;98.50;;;;;;4898172;29;20513;-79
2021/11/17 04:41:50;;;;;;;65.07;26.47;;;7.30;98.40;;;;;;4898366;29;20063;-77
2021/11/17 04:44:16;;;;;;;70.53;29.63;;;7.30;98.40;;;;;;4882787;29;20043;-77
2021/11/17 04:47:00;;;;;;;75.33;30.60;;;7.30;98.40;;;;;;4898286;29;20064;-77
2021/11/17 04:49:25;;;;;;;84.20;32.20;;;7.10;97.90;;;;;;4898677;29;20082;-78
2021/11/17 04:52:23;;;;;;;75.20;30.67;;;7.00;97.80;;;;;;4898474;29;20082;-77
2021/11/17 04:55:14;;;;;;;70.40;27.87;;;6.80;97.90;;;;;;4899012;29;20048;-77
2021/11/17 04:57:53;;;;;;;72.70;29.97;;;6.80;98.30;;;;;;4881798;29;20049;-78
2021/11/17 05:00:40;;;;;;;77.73;30.10;;;6.80;98.50;;;;;;4899694;29;20060;-77
2021/11/17 05:03:08;;;;;;;71.10;28.40;;;6.90;98.70;;;;;;4903411;29;20043;-77
2021/11/17 05:06:04;;;;;;;75.63;28.67;;;7.00;98.80;;;;;;4903816;29;20158;-77
2021/11/17 05:09:14;;;;;;;74.83;30.30;;;7.10;98.80;;;;;;4901394;29;20065;-77
2021/11/17 05:11:43;;;;;;;71.90;27.40;;;7.10;98.70;;;;;;4881929;29;20477;-76
2021/11/17 05:14:12;;;;;;;73.37;30.57;;;7.20;98.70;;;;;;4900497;29;20067;-76
2021/11/17 05:16:59;;;;;;;66.23;28.87;;;7.20;98.60;;;;;;4897931;29;20071;-77
2021/11/17 05:19:34;;;;;;;67.00;28.10;;;7.30;98.60;;;;;;4898116;29;20043;-78
2021/11/17 05:22:06;;;;;;;64.27;27.53;;;7.30;98.60;;;;;;4899716;29;20413;-78
2021/11/17 05:24:47;;;;;;;69.77;29.03;;;7.30;98.70;;;;;;4898238;29;20044;-77
2021/11/17 05:27:28;;;;;;;73.93;31.33;;;7.30;98.70;;;;;;4898749;29;20041;-79
2021/11/17 05:30:17;;;;;;;70.33;30.17;;;7.30;98.40;;;;;;4900067;29;20072;-77
2021/11/17 05:33:04;;;;;;;65.37;28.30;;;7.20;98.50;;;;;;4898436;29;20366;-77
2021/11/17 05:35:48;;;;;;;65.53;26.87;;;7.20;98.60;;;;;;4898288;29;20181;-77
2021/11/17 05:38:17;;;;;;;68.83;30.23;;;7.30;98.70;;;;;;4898385;29;20512;-77
2021/11/17 05:41:14;;;;;;;65.60;28.23;;;7.30;98.70;;;;;;4897644;29;20040;-79
2021/11/17 05:44:13;;;;;;;69.60;28.50;;;7.40;98.60;;;;;;4896399;29;20080;-78
2021/11/17 05:46:57;;;;;;;64.37;28.33;;;7.40;98.70;;;;;;4892003;29;20037;-78
2021/11/17 05:49:29;;;;;;;67.93;28.63;;;7.40;98.50;;;;;;4882325;29;20040;-78
2021/11/17 05:52:24;;;;;;;68.33;28.40;;;7.40;98.60;;;;;;4897537;29;20104;-78
2021/11/17 05:55:32;;;;;;;65.57;28.43;;;7.40;98.60;;;;;;4881924;29;20040;-78
2021/11/17 05:58:10;;;;;;;66.23;28.73;;;7.50;98.70;;;;;;4896655;29;20389;-78
2021/11/17 06:01:01;;;;;;;73.17;32.23;;;7.50;98.70;;;;;;4897332;29;20055;-78
2021/11/17 06:03:55;;;;;;;66.67;30.27;;;7.50;98.60;;;;;;4883067;29;20032;-78
2021/11/17 06:06:22;;;;;;;67.87;29.83;;;7.40;98.50;;;;;;4897440;29;20041;-80
2021/11/17 06:08:49;;;;;;;69.93;29.93;;;7.30;98.30;;;;;;4898563;29;20040;-80
2021/11/17 06:11:15;;;;;;;72.07;33.33;;;7.30;98.50;;;;;;4898586;29;20035;-80
2021/11/17 06:13:41;;;;;;;72.97;32.53;;;7.30;98.70;;;;;;4897706;29;20122;-80
2021/11/17 06:16:07;;;;;;;68.47;31.70;;;7.30;98.80;;;;;;4897300;29;20485;-81
2021/11/17 06:18:35;;;;;;;69.20;31.43;;;7.20;98.70;;;;;;4882495;29;20072;-81
2021/11/17 06:21:06;;;;;;;72.00;30.03;;;7.10;98.80;;;;;;4897287;29;20053;-81
2021/11/17 06:23:46;;;;;;;63.63;28.50;;;7.10;99.00;;;;;;4897701;29;20037;-80
2021/11/17 06:26:15;;;;;;;60.67;27.37;;;7.10;99.10;;;;;;4898384;29;20041;-82
2021/11/17 06:28:41;;;;;;;62.77;28.10;;;7.20;99.30;;;;;;4898245;29;20440;-80
2021/11/17 06:31:06;;;;;;;62.80;28.00;;;7.30;99.30;;;;;;4901352;29;20477;-81
2021/11/17 06:33:32;;;;;;;59.60;27.27;;;7.40;99.30;;;;;;4902710;29;20049;-80
2021/11/17 06:35:58;;;;;;;59.60;27.03;;;7.40;99.20;;;;;;4904263;29;20457;-81
2021/11/17 06:38:24;;;;;;;59.40;27.57;;;7.50;99.30;;;;;;4903543;29;20088;-80
2021/11/17 06:40:52;;;;;;;58.63;25.83;;;7.60;99.30;;;;;;4903792;29;20041;-82
2021/11/17 06:43:18;;;;;;;53.57;25.50;;;7.70;99.30;;;;;;4883718;29;20140;-82
2021/11/17 06:45:46;;;;;;;55.03;27.80;;;7.70;99.30;;;;;;4883090;29;20052;-82
2021/11/17 06:48:13;;;;;;;58.10;26.87;;;7.80;99.20;;;;;;4899575;29;20040;-83
2021/11/17 06:50:43;;;;;;;54.03;24.93;;;7.90;99.10;;;;;;4899553;29;20036;-82
2021/11/17 06:53:09;;;;;;;53.47;26.73;;;7.90;99.10;;;;;;4896998;29;20079;-82
2021/11/17 06:55:34;;;;;;;52.50;25.23;;;7.90;99.00;;;;;;4882476;29;20064;-82
2021/11/17 06:58:01;;;;;;;53.20;26.43;;;7.90;99.00;;;;;;4897774;29;20075;-81
2021/11/17 07:00:29;;;;;;;52.10;25.13;;;7.90;98.90;;;;;;4881927;29;20049;-81
2021/11/17 07:02:55;;;;;;;53.67;25.27;;;8.00;99.00;;;;;;4896614;29;20077;-82
2021/11/17 07:05:21;;;;;;;50.73;25.27;;;8.00;98.90;;;;;;4896424;29;20052;-82
2021/11/17 07:07:54;;;;;;;57.40;26.47;;;8.00;98.80;;;;;;4898437;29;20045;-82
2021/11/17 07:10:22;;;;;;;53.53;26.35;;;8.00;98.80;;;;;;4898126;29;20048;-82
2021/11/17 07:12:48;;;;;;;53.50;25.77;;;8.00;98.70;;;;;;4896529;29;20035;-82
2021/11/17 07:15:15;;;;;;;55.33;26.63;;;8.00;98.70;;;;;;4897905;29;20442;-82
2021/11/17 07:17:41;;;;;;;52.63;25.67;;;8.00;98.70;;;;;;4896851;29;20052;-82
2021/11/17 07:20:10;;;;;;;52.23;26.63;;;8.00;98.60;;;;;;4898094;29;20063;-80
2021/11/17 07:22:37;;;;;;;53.53;27.23;;;8.00;98.60;;;;;;4901831;29;20059;-81
2021/11/17 07:25:07;;;;;;;55.53;26.73;;;8.10;98.70;;;;;;4899875;29;20052;-81
2021/11/17 07:27:33;;;;;;;52.70;26.80;;;8.10;98.60;;;;;;4901183;29;20055;-81
2021/11/17 07:29:59;;;;;;;57.20;27.90;;;8.20;98.70;;;;;;4899827;29;20331;-81
2021/11/17 07:32:26;;;;;;;54.63;28.27;;;8.20;98.60;;;;;;4900711;29;20066;-81
2021/11/17 07:34:53;;;;;;;55.67;30.23;;;8.30;98.60;;;;;;4899047;29;20036;-81
2021/11/17 07:37:19;;;;;;;57.33;29.10;;;8.30;98.60;;;;;;4899267;29;20028;-81
2021/11/17 07:39:44;;;;;;;59.80;29.50;;;8.30;98.50;;;;;;4899617;29;20516;-81
2021/11/17 07:42:10;;;;;;;64.53;32.70;;;8.40;98.60;;;;;;4883340;29;20423;-82
2021/11/17 07:44:37;;;;;;;61.30;30.80;;;8.40;98.60;;;;;;4899122;29;20048;-82
2021/11/17 07:47:04;;;;;;;68.53;33.03;;;8.60;98.70;;;;;;4899052;29;20485;-82
2021/11/17 07:49:30;;;;;;;68.53;32.10;;;8.60;98.60;;;;;;4899145;29;20132;-82
2021/11/17 07:51:56;;;;;;;68.53;32.33;;;8.70;98.50;;;;;;4899122;29;20124;-82
2021/11/17 07:54:27;;;;;;;73.20;32.53;;;8.80;98.60;;;;;;4898949;29;20497;-82
2021/11/17 07:56:54;;;;;;;59.07;31.33;;;8.90;98.50;;;;;;4902604;29;20108;-82
2021/11/17 07:59:23;;;;;;;57.57;29.40;;;8.90;98.40;;;;;;4902747;29;20088;-83
2021/11/17 08:01:51;;;;;;;58.10;29.33;;;8.90;98.20;;;;;;4899771;29;20160;-82
2021/11/17 08:04:18;;;;;;;58.53;30.43;;;8.90;98.20;;;;;;4898863;29;20108;-82
2021/11/17 08:06:45;;;;;;;58.30;29.40;;;8.90;97.80;;;;;;4900019;29;20076;-81
2021/11/17 08:09:12;;;;;;;52.87;27.37;;;8.90;97.60;;;;;;4898880;29;20044;-81
2021/11/17 08:11:39;;;;;;;53.93;29.47;;;8.90;97.80;;;;;;4898435;29;20393;-82
2021/11/17 08:14:05;;;;;;;58.00;31.60;;;8.80;97.70;;;;;;4898424;29;20096;-82
2021/11/17 08:16:31;;;;;;;57.63;30.83;;;8.90;98.10;;;;;;4899572;29;20466;-82
2021/11/17 08:18:56;;;;;;;58.30;30.50;;;8.90;98.10;;;;;;4899642;29;20048;-82
2021/11/17 08:21:23;;;;;;;52.37;27.60;;;9.00;98.00;;;;;;4898394;29;20052;-82
2021/11/17 08:23:49;;;;;;;52.43;28.77;;;8.90;97.60;;;;;;4882486;29;20401;-82
2021/11/17 08:26:17;;;;;;;51.50;28.47;;;9.00;97.80;;;;;;4898219;29;20041;-83
2021/11/17 08:28:44;;;;;;;50.90;26.97;;;9.10;97.90;;;;;;4898232;29;20100;-82
2021/11/17 08:31:12;;;;;;;52.27;27.40;;;9.00;97.70;;;;;;4897652;29;20040;-82
2021/11/17 08:33:40;;;;;;;52.30;27.67;;;9.00;97.60;;;;;;4898617;29;20107;-82
2021/11/17 08:36:06;;;;;;;52.37;27.73;;;9.10;97.70;;;;;;4899628;29;20100;-82
2021/11/17 08:38:32;;;;;;;46.87;27.67;;;9.00;97.70;;;;;;4882605;29;20132;-82
2021/11/17 08:41:02;;;;;;;49.70;26.33;;;9.00;97.80;;;;;;4882666;29;20512;-82
2021/11/17 08:43:29;;;;;;;46.20;25.33;;;9.00;97.70;;;;;;4898145;29;20131;-83
2021/11/17 08:45:56;;;;;;;52.17;26.03;;;9.00;97.80;;;;;;4898416;29;20048;-82
2021/11/17 08:48:25;;;;;;;53.97;27.40;;;9.00;97.90;;;;;;4897795;29;20064;-81
2021/11/17 08:50:52;;;;;;;47.83;25.47;;;9.10;98.00;;;;;;4898309;29;20059;-80
2021/11/17 08:53:19;;;;;;;52.13;25.37;;;9.10;98.10;;;;;;4899413;29;20088;-82
2021/11/17 08:55:45;;;;;;;53.67;26.07;;;9.20;98.00;;;;;;4898509;29;20482;-82
2021/11/17 08:58:18;;;;;;;45.57;25.13;;;9.10;97.60;;;;;;4898677;29;20100;-82
2021/11/17 09:00:48;;;;;;;46.80;25.23;;;9.10;97.70;;;;;;4883031;29;20466;-82
2021/11/17 09:03:15;;;;;;;48.37;25.53;;;9.10;97.90;;;;;;4897870;29;20052;-82
2021/11/17 09:05:47;;;;;;;45.67;24.43;;;9.20;97.90;;;;;;4899687;29;20037;-82
2021/11/17 09:08:13;;;;;;;45.27;24.93;;;9.20;98.00;;;;;;4898008;29;20084;-82
2021/11/17 09:10:43;;;;;;;48.00;25.17;;;9.30;97.90;;;;;;4897826;29;20068;-81
2021/11/17 09:13:09;;;;;;;48.97;26.07;;;9.30;98.10;;;;;;4897802;29;20061;-82
2021/11/17 09:15:39;;;;;;;52.53;25.63;;;9.30;97.90;;;;;;4899157;29;20041;-82
2021/11/17 09:18:07;;;;;;;46.90;24.67;;;9.50;98.00;;;;;;4899039;29;20199;-81
2021/11/17 09:20:33;;;;;;;47.43;25.50;;;9.50;97.90;;;;;;4897723;29;20028;-82
2021/11/17 09:23:00;;;;;;;56.17;27.03;;;9.60;97.90;;;;;;4882561;29;20032;-82
2021/11/17 09:25:27;;;;;;;47.17;25.87;;;9.60;97.80;;;;;;4897546;29;20103;-81
2021/11/17 09:27:54;;;;;;;48.47;25.60;;;9.70;97.80;;;;;;4897652;29;20148;-81
2021/11/17 09:30:24;;;;;;;50.17;26.13;;;9.70;97.80;;;;;;4897240;29;20033;-82
2021/11/17 09:32:55;;;;;;;50.17;24.93;;;9.70;97.60;;;;;;4898676;29;20065;-81
2021/11/17 09:35:21;;;;;;;47.93;25.10;;;9.60;97.50;;;;;;4897348;29;20087;-81
2021/11/17 09:37:49;;;;;;;47.73;25.70;;;9.60;97.50;;;;;;4897229;29;20043;-82
2021/11/17 09:40:25;;;;;;;46.93;25.40;;;9.60;97.70;;;;;;4896944;29;20036;-82
2021/11/17 09:42:52;;;;;;;48.73;25.67;;;9.70;97.80;;;;;;4896886;29;20068;-79
2021/11/17 09:45:19;;;;;;;48.77;24.57;;;9.70;97.60;;;;;;4896933;29;20147;-81
2021/11/17 09:47:45;;;;;;;48.70;25.80;;;9.70;97.50;;;;;;4896968;29;20048;-80
2021/11/17 09:50:20;;;;;;;47.43;25.00;;;9.70;97.50;;;;;;4897228;29;20036;-81
2021/11/17 09:52:55;;;;;;;49.80;24.53;;;9.80;97.60;;;;;;4896870;29;20132;-81
2021/11/17 09:55:33;;;;;;;49.10;24.83;;;9.80;97.60;;;;;;4897170;29;20086;-81
2021/11/17 09:58:33;;;;;;;48.43;24.83;;;9.80;97.70;;;;;;4898044;29;20033;-80
2021/11/17 10:01:34;;;;;;;47.33;24.07;;;9.80;97.80;;;;;;4897230;29;20036;-80
2021/11/17 10:04:26;;;;;;;43.57;23.20;;;9.90;97.90;;;;;;4897339;29;20131;-79
2021/11/17 10:08:05;;;;;;;46.03;24.00;;;9.90;97.90;;;;;;4897524;29;20073;-80
2021/11/17 10:13:59;;;;;;;49.93;24.50;;;10.00;97.80;;;;;;4898561;29;20203;-81
2021/11/17 10:16:25;;;;;;;52.63;25.97;;;10.00;97.80;;;;;;4889148;29;20116;-79
2021/11/17 10:19:26;;;;;;;48.47;23.43;;;10.00;97.70;;;;;;4882176;29;20128;-80
2021/11/17 10:22:19;;;;;;;48.73;24.00;;;10.00;97.80;;;;;;4896389;29;20474;-80
2021/11/17 10:24:53;;;;;;;50.75;25.30;;;10.00;97.90;;;;;;4892361;29;20524;-80
2021/11/17 10:27:22;;;;;;;54.73;26.30;;;10.10;97.90;;;;;;4897066;29;20041;-80
2021/11/17 10:30:10;;;;;;;52.60;25.67;;;10.10;97.90;;;;;;4897381;29;20032;-80
2021/11/17 10:32:46;;;;;;;60.03;27.07;;;10.20;98.00;;;;;;4897028;29;20040;-80
2021/11/17 10:35:12;;;;;;;53.87;25.57;;;10.20;97.80;;;;;;4897812;29;20064;-80
2021/11/17 10:37:59;;;;;;;60.37;28.07;;;10.30;97.90;;;;;;4898067;29;20068;-80
2021/11/17 10:40:29;;;;;;;58.30;27.53;;;10.30;97.80;;;;;;4897180;29;20032;-79
2021/11/17 10:43:15;;;;;;;59.47;27.27;;;10.20;97.80;;;;;;4897855;29;20483;-79
2021/11/17 10:45:45;;;;;;;63.77;26.93;;;10.20;97.80;;;;;;4896957;29;20045;-81
2021/11/17 10:48:27;;;;;;;72.73;29.13;;;10.10;97.80;;;;;;4896640;29;20493;-79
2021/11/17 10:51:04;;;;;;;64.70;27.57;;;10.10;97.90;;;;;;4896625;29;20045;-80
2021/11/17 10:53:31;;;;;;;65.17;27.40;;;10.20;98.20;;;;;;4896727;29;20092;-80
2021/11/17 10:56:06;;;;;;;67.17;27.50;;;10.30;98.30;;;;;;4898091;29;20072;-79
2021/11/17 10:58:36;;;;;;;72.83;30.40;;;10.30;98.20;;;;;;4900142;29;20037;-78
2021/11/17 11:01:15;;;;;;;70.50;28.27;;;10.40;98.10;;;;;;4900255;29;20467;-80
2021/11/17 11:03:48;;;;;;;72.23;28.47;;;10.30;98.00;;;;;;4900515;29;20116;-81
2021/11/17 11:06:54;;;;;;;69.63;29.17;;;10.40;98.10;;;;;;4901601;29;20041;-81
2021/11/17 11:09:37;;;;;;;70.20;28.77;;;10.40;98.20;;;;;;4893003;29;20120;-80
2021/11/17 11:12:04;;;;;;;77.68;29.73;;;10.40;98.30;;;;;;4900462;29;20037;-80
2021/11/17 11:14:43;;;;;;;72.23;28.40;;;10.40;98.30;;;;;;4900650;29;20389;-80
2021/11/17 11:17:27;;;;;;;71.20;30.00;;;10.40;98.40;;;;;;4900309;29;20041;-80
2021/11/17 11:20:16;;;;;;;71.23;29.10;;;10.40;98.30;;;;;;4900308;29;20549;-81
2021/11/17 11:23:15;;;;;;;69.13;27.30;;;10.40;98.50;;;;;;4900075;29;20490;-81
2021/11/17 11:25:52;;;;;;;79.73;30.37;;;10.40;98.70;;;;;;4899801;29;20052;-80
2021/11/17 11:28:21;;;;;;;69.27;29.23;;;10.40;98.70;;;;;;4899673;29;20032;-79
2021/11/17 11:30:48;;;;;;;72.63;29.00;;;10.50;98.70;;;;;;4899312;29;20041;-81
2021/11/17 11:33:30;;;;;;;77.07;30.60;;;10.50;98.70;;;;;;4899263;29;20037;-80
2021/11/17 11:36:11;;;;;;;88.87;33.23;;;10.50;98.70;;;;;;4899267;29;20036;-80
2021/11/17 11:38:51;;;;;;;82.23;31.53;;;10.50;98.70;;;;;;4899151;29;20040;-81
2021/11/17 11:41:34;;;;;;;85.07;32.00;;;10.50;98.70;;;;;;4899655;29;20033;-80
2021/11/17 11:44:19;;;;;;;78.47;31.50;;;10.50;98.80;;;;;;4899647;29;20044;-81
2021/11/17 11:46:58;;;;;;;80.60;32.20;;;10.50;98.80;;;;;;4900357;29;20482;-80
2021/11/17 11:49:42;;;;;;;75.17;30.53;;;10.50;98.80;;;;;;4900315;29;20128;-81
2021/11/17 11:52:29;;;;;;;87.87;34.00;;;10.50;98.90;;;;;;4899611;29;20048;-80
2021/11/17 11:54:55;;;;;;;78.00;30.70;;;10.50;98.90;;;;;;4900037;29;20036;-81
2021/11/17 11:57:27;;;;;;;92.83;35.90;;;10.60;98.90;;;;;;4900310;29;20390;-81
2021/11/17 12:00:01;;;;;;;88.13;34.80;;;10.60;98.80;;;;;;4900128;29;20075;-81
2021/11/17 12:02:28;;;;;;;81.63;34.57;;;10.60;98.80;;;;;;4900692;29;20489;-82
2021/11/17 12:04:58;;;;;;;80.07;32.53;;;10.60;98.80;;;;;;4883832;29;20045;-81
2021/11/17 12:07:30;;;;;;;89.83;34.60;;;10.60;98.80;;;;;;4899130;29;20099;-82
2021/11/17 12:10:08;;;;;;;89.25;34.30;;;10.60;98.90;;;;;;4899074;29;20032;-82
2021/11/17 12:12:37;;;;;;;84.83;33.83;;;10.60;98.90;;;;;;4899163;29;20056;-82
2021/11/17 12:15:24;;;;;;;88.33;34.87;;;10.70;99.00;;;;;;4898537;29;20041;-82
2021/11/17 12:18:05;;;;;;;87.77;35.50;;;10.70;99.00;;;;;;4898685;29;20044;-82
2021/11/17 12:20:37;;;;;;;85.13;33.27;;;10.70;99.00;;;;;;4900438;29;20088;-81
2021/11/17 12:23:18;;;;;;;80.67;32.80;;;10.70;99.10;;;;;;4898848;29;20478;-81
2021/11/17 12:25:54;;;;;;;76.10;30.23;;;10.80;99.10;;;;;;4898621;29;20083;-80
2021/11/17 12:28:19;;;;;;;81.60;32.40;;;10.90;99.10;;;;;;4898538;29;20033;-81
2021/11/17 12:30:52;;;;;;;81.63;32.37;;;10.90;99.00;;;;;;4883480;29;20043;-81
2021/11/17 12:33:23;;;;;;;80.15;30.67;;;10.90;99.00;;;;;;4899608;29;20036;-81
2021/11/17 12:36:12;;;;;;;73.20;31.03;;;11.00;99.00;;;;;;4900390;29;20044;-81
2021/11/17 12:38:39;;;;;;;73.77;29.17;;;11.00;99.00;;;;;;4892872;29;20040;-81
2021/11/17 12:41:17;;;;;;;80.00;31.87;;;11.00;98.90;;;;;;4900197;29;20050;-82
2021/11/17 12:44:01;;;;;;;79.00;30.90;;;11.00;98.90;;;;;;4900599;29;20188;-80
2021/11/17 12:46:35;;;;;;;;;;;10.90;98.90;;;;;;4902570;29;20045;-80
2021/11/17 12:49:22;;;;;;;76.40;31.23;;;11.00;99.00;;;;;;4902409;29;19919;-81
2021/11/17 12:51:53;;;;;;;78.33;32.53;;;11.00;99.00;;;;;;4902157;29;20060;-81
2021/11/17 12:54:43;;;;;;;85.33;33.10;;;11.00;99.00;;;;;;4901437;29;20036;-80
2021/11/17 12:57:21;;;;;;;83.03;32.83;;;11.00;99.00;;;;;;4902293;29;20435;-80
2021/11/17 12:59:49;;;;;;;75.63;32.23;;;11.10;99.00;;;;;;4901186;29;20084;-81
2021/11/17 13:02:21;;;;;;;74.90;31.43;;;11.10;99.00;;;;;;4901578;29;20489;-80
2021/11/17 13:04:47;;;;;;;70.33;29.97;;;11.10;98.90;;;;;;4901640;29;20048;-81
2021/11/17 13:07:37;;;;;;;70.63;30.33;;;11.10;98.90;;;;;;4901110;29;20048;-82
2021/11/17 13:10:05;;;;;;;75.33;31.70;;;11.20;98.90;;;;;;4901876;29;20039;-81
2021/11/17 13:12:33;;;;;;;69.87;30.07;;;11.20;98.90;;;;;;4899822;29;20068;-81
2021/11/17 13:15:22;;;;;;;80.30;32.80;;;11.20;98.90;;;;;;4900242;29;20477;-82
2021/11/17 13:17:48;;;;;;;67.53;30.53;;;11.20;98.80;;;;;;4897598;29;20417;-81
2021/11/17 13:20:14;;;;;;;67.40;30.77;;;11.20;98.90;;;;;;4882846;29;20037;-80
2021/11/17 13:22:44;;;;;;;70.03;31.13;;;11.40;98.90;;;;;;4900314;29;20485;-81
2021/11/17 13:25:13;;;;;;;67.27;31.00;;;11.50;98.80;;;;;;4899786;29;20477;-81
2021/11/17 13:28:02;;;;;;;66.67;30.90;;;11.60;98.50;;;;;;4897998;29;20131;-79
2021/11/17 13:30:47;;;;;;;65.50;28.27;;;11.70;98.40;;;;;;4898659;29;20036;-79
2021/11/17 13:33:31;;;;;;;60.10;27.33;;;11.80;98.30;;;;;;4900322;29;20036;-80
2021/11/17 13:36:07;;;;;;;58.17;27.10;;;11.90;98.20;;;;;;4901767;29;20033;-80
2021/11/17 13:38:36;;;;;;;55.73;27.43;;;11.90;98.10;;;;;;4901545;29;20036;-81
2021/11/17 13:41:07;;;;;;;59.10;29.07;;;11.90;97.90;;;;;;4907802;29;20029;-81
2021/11/17 13:43:34;;;;;;;57.13;27.47;;;11.90;97.80;;;;;;4906265;29;20039;-80
2021/11/17 13:46:06;;;;;;;55.50;27.43;;;11.90;97.80;;;;;;4908528;29;20041;-80
2021/11/17 13:48:34;;;;;;;53.47;28.27;;;12.00;97.70;;;;;;4907850;29;20044;-80
2021/11/17 13:51:00;;;;;;;53.93;27.13;;;12.00;97.60;;;;;;4902491;29;20065;-80
2021/11/17 13:53:26;;;;;;;53.73;26.33;;;12.00;97.60;;;;;;4886045;29;20533;-81
2021/11/17 13:56:00;;;;;;;57.07;27.33;;;12.00;97.50;;;;;;4900490;29;20072;-80
2021/11/17 13:58:26;;;;;;;54.43;28.17;;;12.00;97.40;;;;;;4899909;29;20051;-80
2021/11/17 14:00:53;;;;;;;55.20;27.87;;;12.00;97.40;;;;;;4900344;29;20036;-80
2021/11/17 14:03:19;;;;;;;54.67;28.63;;;12.00;97.30;;;;;;4896907;29;20075;-80
2021/11/17 14:05:46;;;;;;;51.77;26.87;;;12.10;97.20;;;;;;4881692;29;20043;-80
2021/11/17 14:08:13;;;;;;;55.27;27.80;;;12.00;97.00;;;;;;4881274;29;20104;-80
2021/11/17 14:10:39;;;;;;;58.80;29.70;;;12.00;97.10;;;;;;4896697;29;20037;-80
2021/11/17 14:13:06;;;;;;;56.13;29.70;;;12.00;97.20;;;;;;4897487;29;20045;-81
2021/11/17 14:15:33;;;;;;;62.07;31.47;;;12.00;97.10;;;;;;4897937;29;20044;-79
2021/11/17 14:18:00;;;;;;;62.60;31.77;;;11.90;97.00;;;;;;4897160;29;20059;-78
2021/11/17 14:20:26;;;;;;;63.00;32.73;;;11.70;97.10;;;;;;4897590;29;20092;-78
2021/11/17 14:22:52;;;;;;;62.67;33.43;;;11.60;97.30;;;;;;4881339;29;20553;-78
2021/11/17 14:25:22;;;;;;;60.77;31.63;;;11.60;97.40;;;;;;4881644;29;20049;-78
2021/11/17 14:27:51;;;;;;;72.33;32.97;;;11.60;97.50;;;;;;4896913;29;20033;-78
2021/11/17 14:30:24;;;;;;;71.43;36.17;;;11.60;97.50;;;;;;4899561;29;20370;-77
2021/11/17 14:32:51;;;;;;;;;;;11.50;97.70;;;;;;4903155;29;20042;-77
2021/11/17 14:35:18;;;;;;;65.87;34.93;;;11.50;97.70;;;;;;4900737;29;19964;-77
2021/11/17 14:37:45;;;;;;;68.03;34.90;;;11.50;97.80;;;;;;4901085;29;20033;-78
2021/11/17 14:40:13;;;;;;;69.10;36.13;;;11.50;97.70;;;;;;4885017;29;20047;-79
2021/11/17 14:42:39;;;;;;;69.67;37.93;;;11.40;97.70;;;;;;4900382;29;20036;-78
2021/11/17 14:45:08;;;;;;;65.67;36.97;;;11.40;97.80;;;;;;4900333;29;20049;-78
2021/11/17 14:47:35;;;;;;;69.70;38.73;;;11.40;97.90;;;;;;4901073;29;20051;-79
2021/11/17 14:50:01;;;;;;;63.50;34.50;;;11.30;97.90;;;;;;4885458;29;20044;-78
2021/11/17 14:52:26;;;;;;;71.80;39.37;;;11.20;97.90;;;;;;4900700;29;20425;-78
2021/11/17 14:54:52;;;;;;;67.57;37.43;;;11.10;98.00;;;;;;4899920;29;20048;-77
2021/11/17 14:57:18;;;;;;;70.03;36.97;;;11.00;98.10;;;;;;4900561;29;20037;-77
2021/11/17 14:59:45;;;;;;;70.70;38.17;;;10.90;98.20;;;;;;4884171;29;20036;-78
2021/11/17 15:02:11;;;;;;;68.57;35.37;;;10.90;98.40;;;;;;4900965;29;20037;-79
2021/11/17 15:04:37;;;;;;;64.53;34.70;;;10.80;98.30;;;;;;4884255;29;20139;-78
2021/11/17 15:07:09;;;;;;;67.43;35.87;;;10.90;98.40;;;;;;4900066;29;20040;-79
2021/11/17 15:09:36;;;;;;;66.00;36.90;;;10.80;98.50;;;;;;4899492;29;20040;-78
2021/11/17 15:12:07;;;;;;;75.67;38.27;;;10.80;98.60;;;;;;4899857;29;20044;-78
2021/11/17 15:14:36;;;;;;;65.13;37.00;;;10.70;98.60;;;;;;4900027;29;20041;-77
2021/11/17 15:17:03;;;;;;;70.23;36.17;;;10.70;98.70;;;;;;4899948;29;20072;-78
2021/11/17 15:19:28;;;;;;;70.63;37.33;;;10.60;98.80;;;;;;4900596;29;20076;-78
2021/11/17 15:21:55;;;;;;;63.73;34.90;;;10.50;98.90;;;;;;4900700;29;20091;-78
2021/11/17 15:24:21;;;;;;;67.73;34.87;;;10.40;99.00;;;;;;4884246;29;20116;-77
2021/11/17 15:26:53;;;;;;;66.77;34.63;;;10.30;99.10;;;;;;4899425;29;20075;-79
2021/11/17 15:29:20;;;;;;;68.17;35.73;;;10.30;99.20;;;;;;4900058;29;20037;-79
2021/11/17 15:31:46;;;;;;;66.23;34.47;;;10.20;99.30;;;;;;4899074;29;20039;-78
2021/11/17 15:34:12;;;;;;;67.67;35.50;;;10.20;99.40;;;;;;4883872;29;20076;-78
2021/11/17 15:36:37;;;;;;;70.87;35.83;;;10.10;99.40;;;;;;4883858;29;20167;-78
2021/11/17 15:39:05;;;;;;;70.50;34.67;;;10.10;99.50;;;;;;4900603;29;20125;-78